Wind Lake, Wisconsin
Current Conditions -  °F | °C
As of 7:55 AM on Monday 20 Oct 2014 (Local Time) from KBUU Reporting Station
Clear Clear  
Wind Chill: 42°   Ceiling: Unl
Heat Index: 45°   Visibility: 10mi
Dew Point: 42°   Wind: 6mph
Humidity: 90%   Direction: 290°WNW
Pressure: 29.81"   Gusts: NA
Location:  42.796°N, 88.1897°W
Report Text: KBUU 201255Z AUTO 29005KT 10SM CLR 07/06 A2981 RMK AO2 T00730058
Loading
Personal Weather Stations






























Interactive Weather Map
Tropical Storm Tracking
New forecast layout! Learn more

10-Day Weather Forecast

Advertisements
Track Severe Weather on mobile